createdAt,value
2017-11-21T00:04:40.875Z,10.97
2017-11-21T00:09:43.307Z,10.23
2017-11-21T00:14:44.999Z,11.40
2017-11-21T00:19:47.416Z,11.53
2017-11-21T00:24:49.082Z,15.00
2017-11-21T00:29:50.999Z,14.87
2017-11-21T00:34:53.475Z,17.40
2017-11-21T00:39:55.147Z,17.33
2017-11-21T00:45:04.096Z,18.70
2017-11-21T00:50:05.858Z,20.53
2017-11-21T00:55:07.576Z,19.70
2017-11-21T01:00:10.007Z,20.23
2017-11-21T01:05:12.648Z,23.40
2017-11-21T01:10:14.336Z,20.77
2017-11-21T01:15:16.031Z,22.80
2017-11-21T01:20:17.755Z,22.10
2017-11-21T01:25:19.463Z,21.27
2017-11-21T01:30:21.231Z,23.27
2017-11-21T01:35:22.960Z,20.40
2017-11-21T01:40:24.668Z,21.10
2017-11-21T01:45:26.406Z,20.53
2017-11-21T01:50:28.861Z,21.60
2017-11-21T01:55:30.619Z,21.00
2017-11-21T02:00:33.251Z,22.63
2017-11-21T02:05:35.746Z,22.90
2017-11-21T02:10:37.420Z,23.77
2017-11-21T02:15:39.110Z,23.10
2017-11-21T02:20:40.868Z,24.67
2017-11-21T02:25:42.611Z,23.60
2017-11-21T02:30:44.405Z,24.43
2017-11-21T02:35:46.159Z,26.43
2017-11-21T02:40:47.959Z,26.63
2017-11-21T02:45:49.705Z,24.57
2017-11-21T02:50:51.464Z,25.40
2017-11-21T02:55:53.197Z,24.10
2017-11-21T03:00:54.926Z,22.13
2017-11-21T03:05:56.716Z,22.43
2017-11-21T03:10:58.418Z,22.30
2017-11-21T03:16:00.165Z,21.47
2017-11-21T03:21:17.801Z,22.27
2017-11-21T03:26:21.940Z,20.23
2017-11-21T03:31:23.650Z,20.40
2017-11-21T03:36:25.386Z,18.30
2017-11-21T03:41:27.069Z,18.20
2017-11-21T03:46:29.494Z,17.03
2017-11-21T03:51:31.206Z,15.63
2017-11-21T03:56:32.947Z,16.20
2017-11-21T04:01:34.652Z,15.93
2017-11-21T04:06:36.404Z,16.00
2017-11-21T04:11:38.116Z,15.60
2017-11-21T04:16:39.791Z,15.70
2017-11-21T04:21:41.867Z,13.83
2017-11-21T04:26:43.548Z,14.23
2017-11-21T04:31:45.348Z,13.50
2017-11-21T04:36:47.854Z,13.50
2017-11-21T04:41:49.567Z,12.80
2017-11-21T04:46:51.545Z,12.50
2017-11-21T04:51:54.905Z,12.57
2017-11-21T04:56:57.542Z,11.80
2017-11-21T05:02:00.647Z,11.30
2017-11-21T05:07:04.191Z,11.97
2017-11-21T05:12:06.961Z,9.70
2017-11-21T05:17:08.832Z,9.17
2017-11-21T05:22:10.670Z,8.07
2017-11-21T05:27:12.373Z,8.80
2017-11-21T05:32:14.183Z,8.07
2017-11-21T05:37:15.897Z,7.90
2017-11-21T05:42:17.802Z,7.63
2017-11-21T05:47:19.538Z,6.60
2017-11-21T05:52:21.263Z,6.20
2017-11-21T05:57:23.114Z,5.77
2017-11-21T06:02:24.809Z,6.83
2017-11-21T06:07:26.666Z,8.30
2017-11-21T06:12:28.365Z,9.80
2017-11-21T06:17:30.068Z,11.53
2017-11-21T06:22:31.743Z,12.20
2017-11-21T06:27:33.439Z,13.90
2017-11-21T06:32:35.970Z,13.73
2017-11-21T06:37:37.761Z,13.50
2017-11-21T06:42:39.459Z,14.93
2017-11-21T06:47:41.914Z,14.77
2017-11-21T06:52:43.596Z,15.30
2017-11-21T06:57:45.283Z,16.57
2017-11-21T07:02:46.985Z,16.93
2017-11-21T07:07:48.659Z,17.20
2017-11-21T07:12:51.105Z,19.60
2017-11-21T07:17:52.798Z,18.80
2017-11-21T07:22:54.613Z,17.17
2017-11-21T07:27:56.293Z,18.27
2017-11-21T07:32:58.003Z,16.90
2017-11-21T07:37:59.695Z,16.97
2017-11-21T07:43:01.446Z,18.13
2017-11-21T07:48:03.200Z,19.47
2017-11-21T07:53:04.885Z,21.53
2017-11-21T07:58:06.736Z,22.37
2017-11-21T08:03:08.432Z,22.80
2017-11-21T08:08:10.149Z,20.97
2017-11-21T08:13:12.671Z,23.33
2017-11-21T08:18:15.207Z,23.27
2017-11-21T08:23:16.968Z,22.33
2017-11-21T08:28:19.392Z,20.67
2017-11-21T08:33:21.721Z,23.43
2017-11-21T08:38:23.491Z,22.33
2017-11-21T08:43:25.326Z,21.37
2017-11-21T08:48:28.680Z,21.80
2017-11-21T08:53:30.480Z,21.30
2017-11-21T08:58:32.803Z,19.97
2017-11-21T09:03:35.324Z,22.50
2017-11-21T09:08:37.095Z,19.73
2017-11-21T09:13:38.793Z,20.40
2017-11-21T09:18:41.908Z,19.33
2017-11-21T09:23:43.922Z,19.30
2017-11-21T09:28:47.708Z,20.10
2017-11-21T09:39:22.549Z,19.67
2017-11-21T09:44:25.220Z,19.07
2017-11-21T09:49:26.959Z,20.70
2017-11-21T09:54:28.655Z,21.60
2017-11-21T09:59:31.024Z,20.47
2017-11-21T10:04:32.774Z,20.70
2017-11-21T10:09:34.795Z,22.80
2017-11-21T10:14:36.501Z,22.67
2017-11-21T10:19:38.212Z,22.10
2017-11-21T10:24:39.928Z,22.83
2017-11-21T10:29:42.376Z,24.57
2017-11-21T10:34:44.096Z,22.87
2017-11-21T10:39:45.824Z,22.37
2017-11-21T10:44:47.560Z,21.70
2017-11-21T10:49:49.267Z,19.60
2017-11-21T10:54:51.129Z,19.13
2017-11-21T10:59:52.865Z,18.67
2017-11-21T11:04:54.715Z,18.50
2017-11-21T11:09:56.495Z,17.70
2017-11-21T11:14:58.233Z,18.40
2017-11-21T11:20:00.006Z,13.30
2017-11-21T11:25:01.784Z,13.30
2017-11-21T11:30:03.513Z,14.33
2017-11-21T11:35:05.256Z,14.50
2017-11-21T11:40:07.023Z,16.07
2017-11-21T11:45:08.782Z,16.87
2017-11-21T11:50:10.565Z,15.60
2017-11-21T11:55:12.295Z,16.20
2017-11-21T12:00:14.213Z,16.40
2017-11-21T12:05:16.484Z,16.60
2017-11-21T12:10:18.224Z,16.53
2017-11-21T12:15:20.020Z,17.30
2017-11-21T12:20:21.820Z,17.90
2017-11-21T12:25:23.588Z,17.30
2017-11-21T12:30:25.356Z,17.03
2017-11-21T12:35:27.876Z,16.37
2017-11-21T12:40:30.382Z,16.50
2017-11-21T12:45:32.885Z,15.00
2017-11-21T12:50:34.672Z,16.27
2017-11-21T12:55:36.434Z,17.30
2017-11-21T13:00:38.172Z,15.90
2017-11-21T13:05:40.010Z,16.80
2017-11-21T13:10:41.788Z,15.60
2017-11-21T13:15:44.790Z,16.20
2017-11-21T13:20:46.553Z,15.50
2017-11-21T13:25:48.384Z,16.60
2017-11-21T13:30:50.152Z,16.00
2017-11-21T13:35:51.962Z,15.90
2017-11-21T13:40:53.725Z,15.13
2017-11-21T13:45:56.362Z,16.13
2017-11-21T13:50:58.187Z,15.00
2017-11-21T13:56:00.002Z,14.07
2017-11-21T14:01:04.304Z,14.43
2017-11-21T14:06:08.725Z,14.53
2017-11-21T14:11:10.941Z,13.23
2017-11-21T14:16:12.828Z,12.73
2017-11-21T14:21:14.673Z,12.10
2017-11-21T14:26:16.450Z,9.70
2017-11-21T14:31:18.306Z,8.97
2017-11-21T14:36:20.130Z,9.00
2017-11-21T14:41:21.904Z,8.80
2017-11-21T14:46:23.635Z,7.73
2017-11-21T14:51:25.428Z,8.70
2017-11-21T14:56:27.194Z,8.30
2017-11-21T15:01:28.945Z,7.47
2017-11-21T15:06:30.788Z,6.90
2017-11-21T15:11:33.411Z,13.03
2017-11-21T15:16:35.188Z,6.40
2017-11-21T15:21:36.922Z,6.50
2017-11-21T15:26:38.713Z,5.90
2017-11-21T15:31:41.263Z,6.03
2017-11-21T15:36:42.995Z,5.37
2017-11-21T15:41:44.722Z,6.77
2017-11-21T15:46:47.172Z,6.50
2017-11-21T15:51:48.859Z,6.00
2017-11-21T15:56:51.514Z,5.80
2017-11-21T16:01:53.255Z,5.17
2017-11-21T16:06:55.042Z,5.10
2017-11-21T16:11:56.772Z,4.70
2017-11-21T16:16:58.535Z,5.33
2017-11-21T16:22:00.261Z,5.57
2017-11-21T16:27:01.963Z,5.70
2017-11-21T16:32:03.703Z,6.90
2017-11-21T16:37:05.414Z,5.97
2017-11-21T16:42:07.109Z,6.90
2017-11-21T16:47:08.833Z,8.20
2017-11-21T16:52:11.271Z,9.17
2017-11-21T16:57:12.983Z,9.43
2017-11-21T17:02:14.746Z,10.93
2017-11-21T17:07:17.264Z,10.00
2017-11-21T17:12:19.712Z,9.50
2017-11-21T17:17:21.427Z,10.53
2017-11-21T17:22:23.158Z,10.07
2017-11-21T17:27:24.861Z,8.90
2017-11-21T17:32:26.543Z,8.90
2017-11-21T17:37:28.360Z,6.40
2017-11-21T17:42:30.089Z,5.17
2017-11-21T17:47:32.606Z,5.53
2017-11-21T17:52:34.355Z,5.90
2017-11-21T17:57:36.068Z,7.17
2017-11-21T18:02:37.853Z,9.40
2017-11-21T18:07:40.412Z,11.23
2017-11-21T18:12:42.231Z,13.93
2017-11-21T18:17:47.336Z,14.30
2017-11-21T18:22:50.164Z,15.50
2017-11-21T18:27:51.867Z,17.23
2017-11-21T18:33:01.683Z,18.37
2017-11-21T18:38:03.440Z,19.23
2017-11-21T18:43:05.197Z,21.40
2017-11-21T18:48:08.292Z,20.63
2017-11-21T18:53:11.041Z,20.03
2017-11-21T18:58:13.493Z,21.83
2017-11-21T19:03:15.207Z,21.13
2017-11-21T19:08:17.861Z,22.30
2017-11-21T19:13:19.564Z,20.33
2017-11-21T19:18:21.391Z,20.67
2017-11-21T19:23:23.823Z,21.03
2017-11-21T19:28:25.607Z,23.50
2017-11-21T19:33:28.119Z,23.77
2017-11-21T19:38:29.931Z,23.23
2017-11-21T19:43:31.633Z,23.13
2017-11-21T19:48:33.395Z,23.50
2017-11-21T19:53:35.171Z,23.80
2017-11-21T19:58:36.941Z,23.40
2017-11-21T20:03:38.628Z,24.60
2017-11-21T20:08:40.364Z,25.93
2017-11-21T20:13:42.077Z,24.80
2017-11-21T20:18:43.844Z,25.60
2017-11-21T20:23:45.577Z,25.50
2017-11-21T20:28:47.279Z,27.53
2017-11-21T20:33:49.576Z,28.80
2017-11-21T20:38:51.653Z,28.43
2017-11-21T20:43:53.394Z,28.77
2017-11-21T20:48:55.160Z,29.97
2017-11-21T20:53:56.894Z,28.80
2017-11-21T20:58:58.601Z,30.13
2017-11-21T21:04:00.392Z,30.20
2017-11-21T21:09:02.142Z,31.03
2017-11-21T21:14:03.886Z,29.73
2017-11-21T21:19:06.775Z,34.50
2017-11-21T21:24:08.531Z,35.03
2017-11-21T21:29:10.264Z,36.80
2017-11-21T21:34:12.067Z,38.90
2017-11-21T21:39:13.772Z,40.77
2017-11-21T21:44:15.484Z,41.63
2017-11-21T21:49:17.202Z,42.93
2017-11-21T21:54:19.725Z,44.20
2017-11-21T21:59:22.133Z,44.73
2017-11-21T22:04:24.621Z,43.73
2017-11-21T22:09:26.626Z,46.07
2017-11-21T22:14:28.458Z,43.37
2017-11-21T22:19:30.139Z,42.67
2017-11-21T22:24:31.900Z,44.70
2017-11-21T22:29:33.601Z,42.50
2017-11-21T22:34:35.333Z,36.93
2017-11-21T22:39:37.032Z,36.10
2017-11-21T22:44:38.738Z,34.10
2017-11-21T22:49:40.504Z,33.47
2017-11-21T22:54:42.311Z,32.47
2017-11-21T22:59:44.031Z,32.77
2017-11-21T23:04:45.849Z,29.47
2017-11-21T23:09:47.622Z,29.27
2017-11-21T23:14:49.345Z,27.47
2017-11-21T23:19:51.117Z,26.70
2017-11-21T23:24:52.854Z,27.53
2017-11-21T23:29:55.398Z,27.23
2017-11-21T23:34:57.844Z,25.83
2017-11-21T23:39:59.569Z,26.17
2017-11-21T23:45:01.300Z,25.87
2017-11-21T23:50:03.729Z,26.90
2017-11-21T23:55:06.185Z,26.20
